Aviation Digital Data Service (ADDS)

Output produced by TAFs form (2316 UTC 30 July 2014)
found at http://aviationweather.gov/adds/tafs/
 
KRIL 301733Z 3018/3118 01003KT P6SM VCSH SCT060 BKN110 
     FM302000 36007KT P6SM VCTS SCT060CB BKN110 
     TEMPO 3020/3024 VRB20G30KT 5SM +TSRA SCT040 BKN060CB 
     FM310000 06007KT P6SM VCTS BKN060CB BKN110 
     FM310300 08005KT P6SM VCSH SCT060 BKN110 
     FM310600 VRB03KT P6SM BKN110 
     FM311200 VRB03KT P6SM SCT110